createdAt,value
2022-10-03T00:00:11.694Z,18.90
2022-10-03T00:02:54.088Z,19.02
2022-10-03T00:05:34.028Z,19.10
2022-10-03T00:08:18.541Z,18.30
2022-10-03T00:10:55.745Z,17.63
2022-10-03T00:13:27.068Z,18.92
2022-10-03T00:16:03.562Z,18.90
2022-10-03T00:18:37.526Z,18.35
2022-10-03T00:21:09.705Z,18.60
2022-10-03T00:23:42.303Z,16.50
2022-10-03T00:26:28.282Z,14.65
2022-10-03T00:29:01.940Z,14.52
2022-10-03T00:31:39.181Z,14.88
2022-10-03T00:34:15.682Z,14.82
2022-10-03T00:36:49.769Z,15.48
2022-10-03T00:39:32.936Z,14.80
2022-10-03T00:42:18.513Z,15.27
2022-10-03T00:45:03.271Z,15.85
2022-10-03T00:47:55.434Z,15.23
2022-10-03T00:50:29.348Z,15.90
2022-10-03T00:53:04.497Z,15.73
2022-10-03T00:55:39.172Z,17.00
2022-10-03T00:58:29.058Z,15.98
2022-10-03T01:01:02.000Z,17.42
2022-10-03T01:03:35.563Z,17.65
2022-10-03T01:06:13.144Z,16.48
2022-10-03T01:08:49.348Z,17.42
2022-10-03T01:11:24.990Z,16.98
2022-10-03T01:13:57.697Z,16.75
2022-10-03T01:16:31.249Z,17.98
2022-10-03T01:19:05.561Z,16.13
2022-10-03T01:21:41.894Z,16.92
2022-10-03T01:24:25.321Z,16.27
2022-10-03T01:26:55.680Z,15.88
2022-10-03T01:29:44.862Z,16.88
2022-10-03T01:32:16.179Z,14.80
2022-10-03T01:34:46.371Z,16.90
2022-10-03T01:37:17.453Z,16.17
2022-10-03T01:39:50.482Z,15.10
2022-10-03T01:42:21.569Z,16.85
2022-10-03T01:45:04.137Z,14.63
2022-10-03T01:47:35.696Z,16.00
2022-10-03T01:50:06.104Z,15.85
2022-10-03T01:52:37.328Z,14.88
2022-10-03T01:55:08.356Z,16.67
2022-10-03T01:57:39.573Z,15.68
2022-10-03T02:00:12.499Z,16.48
2022-10-03T02:02:43.651Z,16.17
2022-10-03T02:05:15.629Z,15.32
2022-10-03T02:07:50.618Z,16.48
2022-10-03T02:10:24.614Z,16.60
2022-10-03T02:12:57.388Z,16.40
2022-10-03T02:15:29.298Z,16.85
2022-10-03T02:17:58.880Z,16.85
2022-10-03T02:20:29.507Z,17.50
2022-10-03T02:22:57.960Z,17.10
2022-10-03T02:25:27.312Z,16.13
2022-10-03T02:28:13.290Z,16.95
2022-10-03T02:30:47.591Z,17.50
2022-10-03T02:33:33.156Z,16.98
2022-10-03T02:36:33.627Z,17.05
2022-10-03T02:39:18.549Z,16.60
2022-10-03T02:42:03.257Z,16.42
2022-10-03T02:44:57.562Z,16.52
2022-10-03T02:47:43.137Z,15.77
2022-10-03T02:50:29.633Z,16.15
2022-10-03T02:53:16.387Z,16.48
2022-10-03T02:55:51.881Z,16.45
2022-10-03T02:58:38.971Z,16.55
2022-10-03T03:01:18.372Z,17.63
2022-10-03T03:04:03.459Z,16.95
2022-10-03T03:06:52.935Z,16.98
2022-10-03T03:09:41.711Z,17.77
2022-10-03T03:12:30.090Z,18.33
2022-10-03T03:15:26.203Z,17.48
2022-10-03T03:17:58.248Z,17.70
2022-10-03T03:20:44.199Z,16.33
2022-10-03T03:23:21.879Z,18.38
2022-10-03T03:26:06.702Z,18.10
2022-10-03T03:28:38.856Z,17.55
2022-10-03T03:31:10.584Z,17.50
2022-10-03T03:33:44.411Z,17.85
2022-10-03T03:36:15.058Z,17.13
2022-10-03T03:38:48.143Z,17.13
2022-10-03T03:41:26.897Z,18.50
2022-10-03T03:44:06.576Z,18.15
2022-10-03T03:46:41.671Z,17.92
2022-10-03T03:49:27.121Z,16.48
2022-10-03T03:51:59.568Z,18.65
2022-10-03T03:54:41.455Z,17.48
2022-10-03T03:57:18.767Z,17.38
2022-10-03T03:59:58.684Z,16.98
2022-10-03T04:02:31.766Z,19.20
2022-10-03T04:05:05.430Z,17.08
2022-10-03T04:07:38.082Z,16.48
2022-10-03T04:10:16.882Z,17.20
2022-10-03T04:12:56.118Z,17.27
2022-10-03T04:15:35.869Z,18.77
2022-10-03T04:18:28.829Z,17.63
2022-10-03T04:21:04.711Z,17.88
2022-10-03T04:23:58.222Z,17.45
2022-10-03T04:26:33.579Z,17.30
2022-10-03T04:29:22.348Z,17.73
2022-10-03T04:31:57.227Z,17.70
2022-10-03T04:34:34.387Z,18.98
2022-10-03T04:37:14.920Z,17.95
2022-10-03T04:39:45.960Z,17.15
2022-10-03T04:42:21.207Z,17.83
2022-10-03T04:44:54.769Z,17.73
2022-10-03T04:47:26.970Z,18.05
2022-10-03T04:49:57.609Z,19.30
2022-10-03T04:52:32.049Z,17.10
2022-10-03T04:55:05.850Z,17.13
2022-10-03T04:57:38.622Z,17.38
2022-10-03T05:00:16.269Z,17.70
2022-10-03T05:02:51.407Z,17.17
2022-10-03T05:05:27.239Z,18.25
2022-10-03T05:08:00.965Z,17.92
2022-10-03T05:10:35.894Z,17.05
2022-10-03T05:13:12.229Z,16.42
2022-10-03T05:15:46.109Z,17.35
2022-10-03T05:18:20.510Z,17.17
2022-10-03T05:20:53.666Z,18.10
2022-10-03T05:23:25.707Z,16.15
2022-10-03T05:26:16.297Z,16.40
2022-10-03T05:28:51.403Z,16.33
2022-10-03T05:31:26.489Z,16.33
2022-10-03T05:34:00.184Z,16.02
2022-10-03T05:36:34.811Z,17.25
2022-10-03T05:39:32.643Z,16.58
2022-10-03T05:42:22.777Z,16.15
2022-10-03T05:44:57.755Z,15.02
2022-10-03T05:47:49.068Z,15.93
2022-10-03T05:50:41.965Z,14.95
2022-10-03T05:53:15.532Z,15.63
2022-10-03T05:56:00.122Z,16.73
2022-10-03T05:58:45.373Z,16.95
2022-10-03T06:01:25.362Z,17.30
2022-10-03T06:04:20.739Z,15.95
2022-10-03T06:06:52.107Z,17.35
2022-10-03T06:09:46.831Z,16.52
2022-10-03T06:12:17.401Z,18.33
2022-10-03T06:15:05.770Z,17.50
2022-10-03T06:17:46.670Z,17.95
2022-10-03T06:20:24.438Z,18.33
2022-10-03T06:23:09.515Z,18.38
2022-10-03T06:26:00.544Z,16.33
2022-10-03T06:28:39.060Z,17.20
2022-10-03T06:31:14.729Z,17.42
2022-10-03T06:34:00.136Z,18.15
2022-10-03T06:36:45.527Z,17.38
2022-10-03T06:39:27.815Z,17.25
2022-10-03T06:42:14.380Z,17.52
2022-10-03T06:44:56.363Z,17.55
2022-10-03T06:47:28.761Z,17.80
2022-10-03T06:50:13.920Z,17.00
2022-10-03T06:52:59.410Z,16.77
2022-10-03T06:55:49.731Z,17.05
2022-10-03T06:58:35.816Z,17.70
2022-10-03T07:01:22.633Z,17.20
2022-10-03T07:04:14.254Z,17.48
2022-10-03T07:06:59.504Z,17.33
2022-10-03T07:09:54.606Z,17.20
2022-10-03T07:12:44.877Z,16.90
2022-10-03T07:15:50.236Z,19.42
2022-10-03T07:18:32.737Z,18.05
2022-10-03T07:21:27.437Z,17.67
2022-10-03T07:24:05.878Z,17.80
2022-10-03T07:26:41.710Z,18.63
2022-10-03T07:29:24.217Z,16.27
2022-10-03T07:32:11.923Z,17.40
2022-10-03T07:34:54.978Z,17.38
2022-10-03T07:37:55.035Z,16.95
2022-10-03T07:40:43.245Z,17.08
2022-10-03T07:43:31.279Z,15.88
2022-10-03T07:46:19.380Z,16.08
2022-10-03T07:48:57.856Z,14.65
2022-10-03T07:51:30.934Z,15.45
2022-10-03T07:54:19.983Z,14.65
2022-10-03T07:57:04.008Z,13.43
2022-10-03T07:59:47.131Z,14.13
2022-10-03T08:02:23.823Z,13.07
2022-10-03T08:05:06.755Z,12.13
2022-10-03T08:07:46.796Z,12.95
2022-10-03T08:10:21.497Z,11.90
2022-10-03T08:13:12.176Z,12.65
2022-10-03T08:15:48.661Z,11.27
2022-10-03T08:18:31.255Z,11.02
2022-10-03T08:20:59.866Z,11.48
2022-10-03T08:23:43.239Z,12.43
2022-10-03T08:26:18.207Z,11.50
2022-10-03T08:29:00.823Z,12.00
2022-10-03T08:31:52.957Z,11.88
2022-10-03T08:34:38.662Z,11.63
2022-10-03T08:37:26.813Z,10.82
2022-10-03T08:40:00.759Z,11.35
2022-10-03T08:42:46.230Z,10.90
2022-10-03T08:45:29.801Z,9.90
2022-10-03T08:48:12.608Z,8.77
2022-10-03T08:50:55.566Z,9.73
2022-10-03T08:53:38.919Z,9.10
2022-10-03T08:56:09.893Z,9.57
2022-10-03T08:59:00.083Z,9.57
2022-10-03T09:01:30.472Z,9.52
2022-10-03T09:04:16.026Z,9.55
2022-10-03T09:07:17.158Z,8.68
2022-10-03T09:10:01.216Z,9.15
2022-10-03T09:12:42.507Z,7.57
2022-10-03T09:15:30.009Z,9.77
2022-10-03T09:18:18.585Z,8.98
2022-10-03T09:20:56.258Z,8.13
2022-10-03T09:23:48.320Z,7.72
2022-10-03T09:26:43.210Z,6.25
2022-10-03T09:29:25.913Z,5.60
2022-10-03T09:32:12.124Z,5.65
2022-10-03T09:34:55.358Z,5.50
2022-10-03T09:37:34.921Z,5.97
2022-10-03T09:40:20.861Z,5.78
2022-10-03T09:43:00.393Z,6.15
2022-10-03T09:45:42.798Z,6.90
2022-10-03T09:48:28.682Z,6.53
2022-10-03T09:51:15.579Z,6.80
2022-10-03T09:54:01.312Z,6.45
2022-10-03T09:56:44.262Z,6.45
2022-10-03T09:59:29.271Z,6.80
2022-10-03T10:02:04.046Z,6.10
2022-10-03T10:04:54.938Z,5.70
2022-10-03T10:07:48.674Z,6.15
2022-10-03T10:10:36.930Z,4.75
2022-10-03T10:13:15.334Z,5.18
2022-10-03T10:16:09.658Z,4.47
2022-10-03T10:18:47.767Z,4.50
2022-10-03T10:21:27.415Z,4.47
2022-10-03T10:24:02.075Z,4.50
2022-10-03T10:27:02.817Z,4.80
2022-10-03T10:29:54.572Z,5.28
2022-10-03T10:32:34.410Z,5.63
2022-10-03T10:35:21.074Z,5.30
2022-10-03T10:37:56.692Z,5.60
2022-10-03T10:41:04.985Z,5.60
2022-10-03T10:43:50.404Z,5.47
2022-10-03T10:46:33.305Z,6.13
2022-10-03T10:49:22.640Z,6.35
2022-10-03T10:52:13.028Z,5.53
2022-10-03T10:54:52.822Z,5.20
2022-10-03T10:57:30.270Z,4.45
2022-10-03T11:00:18.823Z,4.43
2022-10-03T11:03:05.208Z,4.75
2022-10-03T11:05:51.438Z,4.30
2022-10-03T11:08:34.576Z,4.63
2022-10-03T11:11:20.684Z,4.93
2022-10-03T11:14:05.623Z,4.78
2022-10-03T11:16:55.253Z,5.05
2022-10-03T11:19:47.057Z,4.68
2022-10-03T11:22:33.513Z,6.05
2022-10-03T11:25:33.719Z,4.63
2022-10-03T11:28:14.687Z,5.43
2022-10-03T11:31:00.836Z,4.20
2022-10-03T11:33:43.284Z,4.43
2022-10-03T11:36:29.339Z,3.97
2022-10-03T11:39:01.526Z,4.80
2022-10-03T11:41:35.879Z,4.45
2022-10-03T11:44:07.946Z,4.32
2022-10-03T11:46:48.471Z,4.45
2022-10-03T11:49:24.763Z,5.00
2022-10-03T11:51:59.474Z,4.25
2022-10-03T11:54:32.523Z,4.05
2022-10-03T11:57:02.635Z,4.90
2022-10-03T11:59:44.763Z,4.15
2022-10-03T12:02:16.080Z,4.57
2022-10-03T12:04:49.138Z,4.13
2022-10-03T12:07:38.249Z,4.50
2022-10-03T12:10:13.377Z,4.30
2022-10-03T12:12:43.411Z,4.18
2022-10-03T12:15:20.849Z,4.05
2022-10-03T12:17:52.313Z,4.53
2022-10-03T12:20:24.804Z,3.83
2022-10-03T12:22:55.128Z,3.45
2022-10-03T12:25:24.158Z,3.55
2022-10-03T12:27:58.076Z,3.20
2022-10-03T12:30:29.452Z,3.10
2022-10-03T12:33:04.626Z,2.92
2022-10-03T12:35:40.955Z,2.85
2022-10-03T12:38:17.297Z,3.05
2022-10-03T12:40:47.129Z,3.45
2022-10-03T12:43:24.789Z,2.95
2022-10-03T12:45:55.575Z,3.30
2022-10-03T12:48:31.277Z,3.00
2022-10-03T12:51:04.099Z,2.67
2022-10-03T12:53:46.462Z,2.55
2022-10-03T12:56:16.562Z,2.35
2022-10-03T12:58:51.709Z,3.42
2022-10-03T13:01:23.002Z,3.08
2022-10-03T13:03:53.271Z,2.55
2022-10-03T13:07:02.396Z,2.67
2022-10-03T13:09:32.906Z,2.97
2022-10-03T13:12:06.183Z,3.08
2022-10-03T13:14:43.593Z,2.72
2022-10-03T13:17:17.480Z,3.00
2022-10-03T13:19:48.582Z,2.83
2022-10-03T13:22:24.700Z,2.58
2022-10-03T13:25:01.277Z,2.40
2022-10-03T13:27:39.369Z,4.22
2022-10-03T13:30:07.770Z,2.70
2022-10-03T13:32:39.077Z,2.40
2022-10-03T13:35:27.560Z,2.35
2022-10-03T13:38:07.827Z,2.80
2022-10-03T13:40:39.155Z,2.85
2022-10-03T13:43:11.169Z,2.45
2022-10-03T13:45:41.019Z,3.13
2022-10-03T13:48:12.334Z,2.65
2022-10-03T13:50:45.056Z,2.50
2022-10-03T13:53:15.093Z,2.58
2022-10-03T13:55:48.529Z,2.42
2022-10-03T13:58:21.534Z,3.67
2022-10-03T14:00:55.485Z,3.40
2022-10-03T14:03:28.373Z,2.90
2022-10-03T14:06:06.770Z,2.65
2022-10-03T14:08:45.090Z,3.17
2022-10-03T14:11:23.799Z,2.33
2022-10-03T14:14:01.683Z,2.92
2022-10-03T14:16:31.206Z,3.28
2022-10-03T14:19:02.421Z,2.75
2022-10-03T14:21:35.807Z,3.08
2022-10-03T14:24:06.717Z,2.20
2022-10-03T14:26:37.898Z,2.60
2022-10-03T14:29:08.113Z,2.50
2022-10-03T14:31:41.255Z,2.92
2022-10-03T14:34:15.029Z,3.00
2022-10-03T14:36:44.993Z,4.97
2022-10-03T14:39:23.699Z,3.63
2022-10-03T14:42:07.539Z,2.90
2022-10-03T14:44:41.314Z,3.40
2022-10-03T14:47:10.220Z,2.90
2022-10-03T14:49:57.576Z,3.10
2022-10-03T14:52:29.072Z,3.40
2022-10-03T14:54:57.133Z,2.95
2022-10-03T14:57:39.620Z,2.90
2022-10-03T15:00:25.276Z,3.25
2022-10-03T15:02:52.914Z,2.75
2022-10-03T15:05:23.720Z,3.22
2022-10-03T15:07:51.685Z,3.55
2022-10-03T15:10:20.665Z,3.63
2022-10-03T15:12:54.068Z,3.35
2022-10-03T15:15:24.719Z,3.10
2022-10-03T15:17:53.362Z,2.75
2022-10-03T15:20:26.927Z,2.58
2022-10-03T15:22:56.528Z,2.97
2022-10-03T15:25:27.017Z,2.60
2022-10-03T15:27:57.279Z,2.88
2022-10-03T15:30:31.412Z,3.35
2022-10-03T15:33:07.207Z,3.42
2022-10-03T15:35:39.171Z,2.83
2022-10-03T15:38:10.274Z,3.22
2022-10-03T15:40:39.655Z,3.33
2022-10-03T15:43:21.291Z,3.03
2022-10-03T15:45:48.929Z,3.28
2022-10-03T15:48:18.926Z,3.10
2022-10-03T15:50:50.680Z,3.15
2022-10-03T15:53:37.604Z,3.10
2022-10-03T15:56:11.452Z,2.85
2022-10-03T15:58:44.940Z,3.05
2022-10-03T16:01:14.146Z,3.15
2022-10-03T16:03:43.940Z,2.90
2022-10-03T16:06:13.684Z,3.33
2022-10-03T16:08:48.016Z,3.45
2022-10-03T16:11:19.018Z,3.63
2022-10-03T16:13:53.624Z,3.47
2022-10-03T16:16:24.108Z,3.55
2022-10-03T16:18:56.661Z,3.55
2022-10-03T16:21:31.987Z,3.30
2022-10-03T16:24:00.577Z,3.47
2022-10-03T16:26:29.884Z,3.15
2022-10-03T16:29:02.826Z,3.15
2022-10-03T16:31:34.983Z,3.35
2022-10-03T16:34:04.054Z,3.17
2022-10-03T16:36:33.147Z,3.42
2022-10-03T16:39:04.398Z,3.25
2022-10-03T16:41:33.125Z,3.08
2022-10-03T16:44:02.915Z,3.40
2022-10-03T16:46:33.035Z,4.00
2022-10-03T16:49:20.326Z,3.58
2022-10-03T16:51:50.812Z,3.97
2022-10-03T16:54:19.215Z,4.35
2022-10-03T16:56:48.491Z,4.05
2022-10-03T16:59:18.401Z,4.07
2022-10-03T17:01:47.891Z,3.65
2022-10-03T17:04:18.506Z,4.03
2022-10-03T17:06:47.119Z,3.53
2022-10-03T17:09:32.310Z,3.92
2022-10-03T17:12:00.624Z,4.57
2022-10-03T17:14:34.637Z,4.25
2022-10-03T17:17:06.025Z,4.13
2022-10-03T17:19:36.442Z,4.07
2022-10-03T17:22:08.758Z,4.15
2022-10-03T17:24:44.233Z,4.47
2022-10-03T17:27:16.336Z,4.78
2022-10-03T17:29:47.765Z,5.90
2022-10-03T17:32:17.151Z,5.05
2022-10-03T17:34:47.364Z,4.90
2022-10-03T17:37:18.565Z,4.68
2022-10-03T17:39:51.456Z,5.63
2022-10-03T17:42:28.813Z,4.82
2022-10-03T17:45:12.377Z,4.45
2022-10-03T17:47:48.573Z,4.88
2022-10-03T17:50:18.615Z,4.22
2022-10-03T17:52:49.840Z,5.68
2022-10-03T17:55:19.600Z,5.03
2022-10-03T17:57:49.237Z,5.22
2022-10-03T18:00:22.813Z,5.60
2022-10-03T18:02:57.894Z,6.28
2022-10-03T18:05:27.656Z,6.72
2022-10-03T18:07:55.635Z,7.43
2022-10-03T18:10:26.450Z,7.20
2022-10-03T18:13:35.051Z,6.55
2022-10-03T18:16:17.146Z,6.38
2022-10-03T18:19:04.400Z,6.80
2022-10-03T18:21:38.185Z,6.93
2022-10-03T18:24:31.118Z,6.85
2022-10-03T18:27:39.702Z,7.32
2022-10-03T18:37:44.417Z,6.72
2022-10-03T18:40:28.554Z,6.38
2022-10-03T18:42:56.355Z,6.80
2022-10-03T18:45:29.023Z,7.05
2022-10-03T18:48:00.165Z,7.15
2022-10-03T18:50:29.902Z,7.53
2022-10-03T18:53:00.673Z,6.57
2022-10-03T18:55:34.214Z,6.47
2022-10-03T18:58:12.111Z,6.80
2022-10-03T19:00:46.296Z,6.93
2022-10-03T19:03:16.487Z,7.07
2022-10-03T19:05:46.871Z,6.43
2022-10-03T19:08:19.990Z,6.00
2022-10-03T19:10:49.482Z,7.18
2022-10-03T19:13:21.426Z,6.53
2022-10-03T19:16:14.209Z,6.70
2022-10-03T19:18:43.091Z,7.57
2022-10-03T19:21:18.516Z,8.15
2022-10-03T19:23:47.957Z,8.73
2022-10-03T19:26:22.973Z,8.27
2022-10-03T19:28:51.782Z,7.72
2022-10-03T19:31:21.940Z,7.68
2022-10-03T19:33:50.902Z,7.72
2022-10-03T19:36:21.617Z,7.70
2022-10-03T19:38:50.294Z,7.88
2022-10-03T19:41:24.230Z,7.05
2022-10-03T19:43:52.035Z,7.68
2022-10-03T19:46:25.336Z,8.00
2022-10-03T19:49:04.595Z,7.80
2022-10-03T19:51:32.532Z,8.63
2022-10-03T19:54:01.204Z,8.80
2022-10-03T19:56:33.425Z,8.93
2022-10-03T19:59:02.556Z,8.82
2022-10-03T20:01:35.724Z,9.43
2022-10-03T20:04:03.527Z,8.88
2022-10-03T20:06:33.865Z,8.43
2022-10-03T20:09:09.825Z,9.77
2022-10-03T20:11:42.129Z,9.50
2022-10-03T20:14:14.103Z,10.30
2022-10-03T20:16:43.271Z,9.82
2022-10-03T20:19:12.533Z,11.02
2022-10-03T20:21:40.734Z,11.70
2022-10-03T20:24:14.238Z,9.82
2022-10-03T20:26:46.512Z,9.45
2022-10-03T20:29:19.535Z,10.25
2022-10-03T20:31:48.301Z,10.63
2022-10-03T20:34:17.649Z,9.70
2022-10-03T20:36:47.381Z,9.63
2022-10-03T20:39:17.093Z,8.88
2022-10-03T20:41:51.658Z,8.82
2022-10-03T20:44:28.260Z,9.32
2022-10-03T20:47:00.263Z,9.13
2022-10-03T20:49:31.601Z,9.32
2022-10-03T20:52:01.111Z,9.45
2022-10-03T20:54:31.655Z,9.75
2022-10-03T20:57:03.023Z,10.05
2022-10-03T20:59:34.742Z,10.38
2022-10-03T21:02:05.910Z,11.38
2022-10-03T21:04:34.962Z,11.77
2022-10-03T21:07:05.101Z,11.52
2022-10-03T21:09:40.998Z,11.48
2022-10-03T21:12:15.789Z,10.77
2022-10-03T21:14:44.248Z,10.48
2022-10-03T21:17:15.111Z,10.90
2022-10-03T21:19:46.738Z,10.80
2022-10-03T21:22:16.649Z,10.02
2022-10-03T21:24:48.504Z,9.85
2022-10-03T21:27:17.997Z,10.98
2022-10-03T21:29:53.878Z,9.82
2022-10-03T21:32:27.169Z,10.30
2022-10-03T21:34:59.964Z,9.80
2022-10-03T21:37:29.092Z,9.65
2022-10-03T21:40:07.768Z,8.00
2022-10-03T21:42:43.124Z,8.00
2022-10-03T21:45:19.196Z,9.15
2022-10-03T21:47:48.979Z,9.43
2022-10-03T21:50:20.225Z,11.70
2022-10-03T21:52:56.329Z,9.35
2022-10-03T21:55:51.141Z,8.77
2022-10-03T21:58:38.387Z,9.30
2022-10-03T22:01:13.085Z,10.88
2022-10-03T22:03:45.549Z,9.95
2022-10-03T22:06:16.464Z,8.57
2022-10-03T22:08:44.691Z,8.85
2022-10-03T22:11:17.894Z,9.82
2022-10-03T22:13:48.527Z,10.10
2022-10-03T22:16:22.099Z,11.32
2022-10-03T22:19:03.833Z,9.40
2022-10-03T22:21:37.397Z,9.98
2022-10-03T22:24:09.386Z,10.25
2022-10-03T22:26:39.789Z,10.25
2022-10-03T22:29:11.888Z,10.50
2022-10-03T22:31:45.454Z,10.45
2022-10-03T22:34:21.599Z,9.18
2022-10-03T22:36:49.709Z,10.13
2022-10-03T22:39:18.654Z,10.30
2022-10-03T22:41:47.942Z,10.40
2022-10-03T22:44:17.334Z,9.60
2022-10-03T22:46:49.048Z,9.77
2022-10-03T22:49:19.011Z,9.85
2022-10-03T22:51:48.719Z,9.95
2022-10-03T22:54:17.605Z,9.32
2022-10-03T22:56:46.455Z,9.60
2022-10-03T22:59:17.929Z,9.93
2022-10-03T23:01:47.786Z,8.38
2022-10-03T23:04:19.244Z,8.90
2022-10-03T23:06:56.410Z,8.50
2022-10-03T23:09:25.351Z,9.15
2022-10-03T23:11:54.814Z,8.25
2022-10-03T23:14:23.355Z,7.93
2022-10-03T23:16:54.314Z,8.40
2022-10-03T23:19:34.509Z,7.95
2022-10-03T23:22:02.103Z,8.43
2022-10-03T23:24:33.306Z,9.05
2022-10-03T23:27:15.633Z,9.77
2022-10-03T23:29:43.094Z,9.52
2022-10-03T23:32:12.546Z,8.68
2022-10-03T23:34:47.705Z,8.55
2022-10-03T23:37:26.027Z,9.55
2022-10-03T23:40:14.376Z,9.23
2022-10-03T23:42:43.207Z,9.32
2022-10-03T23:45:14.852Z,10.60
2022-10-03T23:47:45.273Z,9.75
2022-10-03T23:50:18.683Z,8.90
2022-10-03T23:52:47.682Z,8.63
2022-10-03T23:55:19.023Z,9.07
2022-10-03T23:57:46.596Z,7.82
